sensor_id;sensor_type;location;lat;lon;timestamp;pressure;altitude;pressure_sealevel;temperature;humidity
55044;BME280;54902;50.420;18.854;2024-02-26T00:00:14;100320.21;;;7.31;67.44
55044;BME280;54902;50.420;18.854;2024-02-26T00:00:46;100330.19;;;7.31;67.44
55044;BME280;54902;50.420;18.854;2024-02-26T00:01:17;100319.32;;;7.31;67.44
55044;BME280;54902;50.420;18.854;2024-02-26T00:01:48;100322.17;;;7.29;67.44
55044;BME280;54902;50.420;18.854;2024-02-26T00:02:19;100323.18;;;7.28;67.43
55044;BME280;54902;50.420;18.854;2024-02-26T00:02:50;100321.31;;;7.29;67.44
55044;BME280;54902;50.420;18.854;2024-02-26T00:03:21;100314.13;;;7.28;67.45
55044;BME280;54902;50.420;18.854;2024-02-26T00:03:52;100319.57;;;7.28;67.42
55044;BME280;54902;50.420;18.854;2024-02-26T00:04:25;100319.57;;;7.28;67.42
55044;BME280;54902;50.420;18.854;2024-02-26T00:04:56;100316.13;;;7.26;67.44
55044;BME280;54902;50.420;18.854;2024-02-26T00:05:27;100307.09;;;7.25;67.42
55044;BME280;54902;50.420;18.854;2024-02-26T00:05:58;100312.52;;;7.25;67.42
55044;BME280;54902;50.420;18.854;2024-02-26T00:06:32;100322.54;;;7.25;67.42
55044;BME280;54902;50.420;18.854;2024-02-26T00:07:03;100320.80;;;7.24;67.43
55044;BME280;54902;50.420;18.854;2024-02-26T00:07:34;100316.34;;;7.23;67.42
55044;BME280;54902;50.420;18.854;2024-02-26T00:08:06;100324.49;;;7.23;67.42
55044;BME280;54902;50.420;18.854;2024-02-26T00:08:37;100319.18;;;7.21;67.42
55044;BME280;54902;50.420;18.854;2024-02-26T00:09:09;100311.03;;;7.21;67.43
55044;BME280;54902;50.420;18.854;2024-02-26T00:09:40;100322.88;;;7.20;67.42
55044;BME280;54902;50.420;18.854;2024-02-26T00:10:11;100320.28;;;7.19;67.40
55044;BME280;54902;50.420;18.854;2024-02-26T00:10:42;100320.28;;;7.19;67.40
55044;BME280;54902;50.420;18.854;2024-02-26T00:11:13;100316.84;;;7.17;67.40
55044;BME280;54902;50.420;18.854;2024-02-26T00:11:44;100318.57;;;7.18;67.42
55044;BME280;54902;50.420;18.854;2024-02-26T00:12:15;100321.38;;;7.16;67.40
55044;BME280;54902;50.420;18.854;2024-02-26T00:12:47;100329.53;;;7.16;67.42
55044;BME280;54902;50.420;18.854;2024-02-26T00:13:18;100323.37;;;7.14;67.42
55044;BME280;54902;50.420;18.854;2024-02-26T00:13:52;100308.16;;;7.12;67.39
55044;BME280;54902;50.420;18.854;2024-02-26T00:14:23;100320.77;;;7.13;67.40
55044;BME280;54902;50.420;18.854;2024-02-26T00:14:54;100319.16;;;7.10;67.41
55044;BME280;54902;50.420;18.854;2024-02-26T00:15:28;100308.30;;;7.10;67.40
55044;BME280;54902;50.420;18.854;2024-02-26T00:15:59;100314.70;;;7.09;67.40
55044;BME280;54902;50.420;18.854;2024-02-26T00:16:30;100324.72;;;7.09;67.41
55044;BME280;54902;50.420;18.854;2024-02-26T00:17:01;100316.69;;;7.07;67.39
55044;BME280;54902;50.420;18.854;2024-02-26T00:17:33;100315.80;;;7.07;67.41
55044;BME280;54902;50.420;18.854;2024-02-26T00:18:04;100314.06;;;7.06;67.41
55044;BME280;54902;50.420;18.854;2024-02-26T00:18:35;100306.93;;;7.05;67.41
55044;BME280;54902;50.420;18.854;2024-02-26T00:19:06;100315.07;;;7.05;67.41
55044;BME280;54902;50.420;18.854;2024-02-26T00:19:37;100313.46;;;7.02;67.40
55044;BME280;54902;50.420;18.854;2024-02-26T00:20:10;100307.13;;;7.02;67.42
55044;BME280;54902;50.420;18.854;2024-02-26T00:20:41;100311.72;;;7.01;67.42
55044;BME280;54902;50.420;18.854;2024-02-26T00:21:13;100321.72;;;7.01;67.41
55044;BME280;54902;50.420;18.854;2024-02-26T00:21:44;100319.13;;;6.99;67.43
55044;BME280;54902;50.420;18.854;2024-02-26T00:22:15;100314.66;;;6.98;67.41
55044;BME280;54902;50.420;18.854;2024-02-26T00:22:46;100314.80;;;6.97;67.44
55044;BME280;54902;50.420;18.854;2024-02-26T00:23:17;100320.23;;;6.97;67.43
55044;BME280;54902;50.420;18.854;2024-02-26T00:23:53;100313.05;;;6.96;67.43
55044;BME280;54902;50.420;18.854;2024-02-26T00:24:25;100311.31;;;6.95;67.41
55044;BME280;54902;50.420;18.854;2024-02-26T00:24:56;100314.03;;;6.95;67.44
55044;BME280;54902;50.420;18.854;2024-02-26T00:25:27;100307.88;;;6.93;67.43
55044;BME280;54902;50.420;18.854;2024-02-26T00:25:57;100316.02;;;6.93;67.43
55044;BME280;54902;50.420;18.854;2024-02-26T00:26:29;100311.55;;;6.92;67.44
55044;BME280;54902;50.420;18.854;2024-02-26T00:27:00;100309.82;;;6.91;67.44
55044;BME280;54902;50.420;18.854;2024-02-26T00:27:31;100318.95;;;6.90;67.44
55044;BME280;54902;50.420;18.854;2024-02-26T00:28:02;100321.66;;;6.90;67.47
55044;BME280;54902;50.420;18.854;2024-02-26T00:28:32;100311.80;;;6.89;67.43
55044;BME280;54902;50.420;18.854;2024-02-26T00:29:04;100307.47;;;6.87;67.44
55044;BME280;54902;50.420;18.854;2024-02-26T00:29:35;100314.61;;;6.88;67.46
55044;BME280;54902;50.420;18.854;2024-02-26T00:30:07;100315.62;;;6.87;67.45
55044;BME280;54902;50.420;18.854;2024-02-26T00:30:38;100311.16;;;6.86;67.45
55044;BME280;54902;50.420;18.854;2024-02-26T00:31:09;100309.42;;;6.85;67.44
55044;BME280;54902;50.420;18.854;2024-02-26T00:31:42;100310.39;;;6.84;67.47
55044;BME280;54902;50.420;18.854;2024-02-26T00:32:13;100315.95;;;6.82;67.46
55044;BME280;54902;50.420;18.854;2024-02-26T00:32:44;100315.95;;;6.82;67.45
55044;BME280;54902;50.420;18.854;2024-02-26T00:33:17;100311.49;;;6.81;67.46
55044;BME280;54902;50.420;18.854;2024-02-26T00:33:47;100317.04;;;6.80;67.45
55044;BME280;54902;50.420;18.854;2024-02-26T00:34:18;100305.33;;;6.79;67.46
55044;BME280;54902;50.420;18.854;2024-02-26T00:34:50;100321.73;;;6.78;67.46
55044;BME280;54902;50.420;18.854;2024-02-26T00:35:21;100323.56;;;6.77;67.48
55044;BME280;54902;50.420;18.854;2024-02-26T00:35:52;100313.71;;;6.76;67.48
55044;BME280;54902;50.420;18.854;2024-02-26T00:36:23;100319.27;;;6.75;67.47
55044;BME280;54902;50.420;18.854;2024-02-26T00:36:54;100317.52;;;6.74;67.47
55044;BME280;54902;50.420;18.854;2024-02-26T00:37:25;100322.06;;;6.73;67.47
55044;BME280;54902;50.420;18.854;2024-02-26T00:37:56;100319.48;;;6.72;67.49
55044;BME280;54902;50.420;18.854;2024-02-26T00:38:29;100324.05;;;6.71;67.47
55044;BME280;54902;50.420;18.854;2024-02-26T00:39:00;100322.30;;;6.70;67.47
55044;BME280;54902;50.420;18.854;2024-02-26T00:39:30;100323.28;;;6.69;67.49
55044;BME280;54902;50.420;18.854;2024-02-26T00:40:02;100320.58;;;6.69;67.49
55044;BME280;54902;50.420;18.854;2024-02-26T00:40:33;100322.55;;;6.67;67.50
55044;BME280;54902;50.420;18.854;2024-02-26T00:41:05;100323.52;;;6.66;67.49
55044;BME280;54902;50.420;18.854;2024-02-26T00:41:40;100326.24;;;6.66;67.50
55044;BME280;54902;50.420;18.854;2024-02-26T00:42:11;100324.62;;;6.64;67.51
55044;BME280;54902;50.420;18.854;2024-02-26T00:42:42;100319.18;;;6.64;67.51
55044;BME280;54902;50.420;18.854;2024-02-26T00:43:18;100318.34;;;6.63;67.52
55044;BME280;54902;50.420;18.854;2024-02-26T00:43:49;100322.99;;;6.61;67.53
55044;BME280;54902;50.420;18.854;2024-02-26T00:44:19;100328.42;;;6.61;67.53
55044;BME280;54902;50.420;18.854;2024-02-26T00:44:50;100314.98;;;6.60;67.52
55044;BME280;54902;50.420;18.854;2024-02-26T00:45:21;100327.69;;;6.59;67.51
55044;BME280;54902;50.420;18.854;2024-02-26T00:45:53;100312.38;;;6.58;67.52
55044;BME280;54902;50.420;18.854;2024-02-26T00:46:23;100320.52;;;6.58;67.60
55044;BME280;54902;50.420;18.854;2024-02-26T00:46:55;100321.49;;;6.57;67.53
55044;BME280;54902;50.420;18.854;2024-02-26T00:47:26;100318.04;;;6.55;67.53
55044;BME280;54902;50.420;18.854;2024-02-26T00:47:57;100328.90;;;6.55;67.53
55044;BME280;54902;50.420;18.854;2024-02-26T00:48:28;100329.87;;;6.54;67.56
55044;BME280;54902;50.420;18.854;2024-02-26T00:48:59;100325.41;;;6.53;67.55
55044;BME280;54902;50.420;18.854;2024-02-26T00:49:31;100323.68;;;6.52;67.54
55044;BME280;54902;50.420;18.854;2024-02-26T00:50:03;100315.25;;;6.44;67.54
55044;BME280;54902;50.420;18.854;2024-02-26T00:50:34;100317.52;;;6.50;67.55
55044;BME280;54902;50.420;18.854;2024-02-26T00:51:05;100322.95;;;6.50;67.56
55044;BME280;54902;50.420;18.854;2024-02-26T00:51:38;100322.17;;;6.48;67.57
55044;BME280;54902;50.420;18.854;2024-02-26T00:52:09;100330.31;;;6.48;67.58
55044;BME280;54902;50.420;18.854;2024-02-26T00:52:40;100329.58;;;6.46;67.58
55044;BME280;54902;50.420;18.854;2024-02-26T00:53:10;100322.41;;;6.45;67.59
55044;BME280;54902;50.420;18.854;2024-02-26T00:53:41;100325.98;;;6.46;67.61
55044;BME280;54902;50.420;18.854;2024-02-26T00:54:12;100319.70;;;6.45;67.61
55044;BME280;54902;50.420;18.854;2024-02-26T00:54:43;100324.40;;;6.43;67.61
55044;BME280;54902;50.420;18.854;2024-02-26T00:55:14;100324.40;;;6.43;67.62
55044;BME280;54902;50.420;18.854;2024-02-26T00:55:46;100324.40;;;6.43;67.63
55044;BME280;54902;50.420;18.854;2024-02-26T00:56:17;100322.66;;;6.42;67.64
55044;BME280;54902;50.420;18.854;2024-02-26T00:56:48;100325.37;;;6.42;67.63
55044;BME280;54902;50.420;18.854;2024-02-26T00:57:19;100322.77;;;6.41;67.66
55044;BME280;54902;50.420;18.854;2024-02-26T00:57:50;100326.33;;;6.41;67.66
55044;BME280;54902;50.420;18.854;2024-02-26T00:58:21;100316.46;;;6.40;67.66
55044;BME280;54902;50.420;18.854;2024-02-26T00:58:52;100321.16;;;6.38;67.67
55044;BME280;54902;50.420;18.854;2024-02-26T00:59:23;100325.69;;;6.38;67.68
55044;BME280;54902;50.420;18.854;2024-02-26T00:59:54;100320.26;;;6.38;67.70
55044;BME280;54902;50.420;18.854;2024-02-26T01:00:27;100324.84;;;6.37;67.69
55044;BME280;54902;50.420;18.854;2024-02-26T01:00:58;100323.09;;;6.36;67.70
55044;BME280;54902;50.420;18.854;2024-02-26T01:01:29;100320.38;;;6.36;67.69
55044;BME280;54902;50.420;18.854;2024-02-26T01:02:00;100321.38;;;6.36;67.71
55044;BME280;54902;50.420;18.854;2024-02-26T01:02:34;100325.07;;;6.35;67.70
55044;BME280;54902;50.420;18.854;2024-02-26T01:03:05;100319.65;;;6.35;67.72
55044;BME280;54902;50.420;18.854;2024-02-26T01:03:36;100325.07;;;6.35;67.72
55044;BME280;54902;50.420;18.854;2024-02-26T01:04:07;100334.18;;;6.34;67.74
55044;BME280;54902;50.420;18.854;2024-02-26T01:04:38;100320.63;;;6.34;67.73
55044;BME280;54902;50.420;18.854;2024-02-26T01:05:09;100324.30;;;6.33;67.75
55044;BME280;54902;50.420;18.854;2024-02-26T01:05:40;100325.27;;;6.32;67.74
55044;BME280;54902;50.420;18.854;2024-02-26T01:06:11;100322.56;;;6.32;67.77
55044;BME280;54902;50.420;18.854;2024-02-26T01:06:42;100327.98;;;6.32;67.76
55044;BME280;54902;50.420;18.854;2024-02-26T01:07:13;100322.68;;;6.30;67.75
55044;BME280;54902;50.420;18.854;2024-02-26T01:07:44;100319.12;;;6.30;67.76
55044;BME280;54902;50.420;18.854;2024-02-26T01:08:15;100324.54;;;6.30;67.77
55044;BME280;54902;50.420;18.854;2024-02-26T01:08:47;100321.83;;;6.30;67.77
55044;BME280;54902;50.420;18.854;2024-02-26T01:09:17;100317.37;;;6.29;67.79
55044;BME280;54902;50.420;18.854;2024-02-26T01:09:49;100325.52;;;6.29;67.78
55044;BME280;54902;50.420;18.854;2024-02-26T01:10:20;100324.66;;;6.28;67.78
55044;BME280;54902;50.420;18.854;2024-02-26T01:10:51;100308.09;;;6.20;67.78
55044;BME280;54902;50.420;18.854;2024-02-26T01:11:22;100323.88;;;6.26;67.78
55044;BME280;54902;50.420;18.854;2024-02-26T01:11:53;100314.04;;;6.25;67.78
55044;BME280;54902;50.420;18.854;2024-02-26T01:12:24;100317.60;;;6.26;67.79
55044;BME280;54902;50.420;18.854;2024-02-26T01:12:55;100321.29;;;6.25;67.80
55044;BME280;54902;50.420;18.854;2024-02-26T01:13:26;100318.57;;;6.25;67.79
55044;BME280;54902;50.420;18.854;2024-02-26T01:13:56;100322.27;;;6.24;67.80
55044;BME280;54902;50.420;18.854;2024-02-26T01:14:28;100324.98;;;6.24;67.80
55044;BME280;54902;50.420;18.854;2024-02-26T01:15:00;100321.41;;;6.23;67.82
55044;BME280;54902;50.420;18.854;2024-02-26T01:15:31;100318.82;;;6.22;67.84
55044;BME280;54902;50.420;18.854;2024-02-26T01:16:03;100324.23;;;6.22;67.85
55044;BME280;54902;50.420;18.854;2024-02-26T01:16:34;100318.82;;;6.22;67.85
55044;BME280;54902;50.420;18.854;2024-02-26T01:17:05;100324.23;;;6.22;67.85
55044;BME280;54902;50.420;18.854;2024-02-26T01:17:36;100321.52;;;6.22;67.87
55044;BME280;54902;50.420;18.854;2024-02-26T01:18:07;100321.64;;;6.20;67.87
55044;BME280;54902;50.420;18.854;2024-02-26T01:18:38;100316.22;;;6.20;67.91
55044;BME280;54902;50.420;18.854;2024-02-26T01:19:09;100314.48;;;6.19;67.90
55044;BME280;54902;50.420;18.854;2024-02-26T01:19:40;100315.33;;;6.20;67.90
55044;BME280;54902;50.420;18.854;2024-02-26T01:20:11;100324.48;;;6.19;67.91
55044;BME280;54902;50.420;18.854;2024-02-26T01:20:42;100318.16;;;6.18;67.92
55044;BME280;54902;50.420;18.854;2024-02-26T01:21:13;100320.25;;;6.15;67.92
55044;BME280;54902;50.420;18.854;2024-02-26T01:21:45;100315.57;;;6.17;67.94
55044;BME280;54902;50.420;18.854;2024-02-26T01:22:16;100320.02;;;6.18;67.95
55044;BME280;54902;50.420;18.854;2024-02-26T01:22:47;100313.83;;;6.16;67.94
55044;BME280;54902;50.420;18.854;2024-02-26T01:23:18;100316.54;;;6.16;67.95
55044;BME280;54902;50.420;18.854;2024-02-26T01:23:49;100315.57;;;6.17;67.96
55044;BME280;54902;50.420;18.854;2024-02-26T01:24:20;100320.13;;;6.16;67.96
55044;BME280;54902;50.420;18.854;2024-02-26T01:24:51;100320.13;;;6.16;67.98
55044;BME280;54902;50.420;18.854;2024-02-26T01:25:22;100319.25;;;6.16;67.98
55044;BME280;54902;50.420;18.854;2024-02-26T01:25:53;100311.12;;;6.16;67.99
55044;BME280;54902;50.420;18.854;2024-02-26T01:26:24;100324.67;;;6.16;67.99
55044;BME280;54902;50.420;18.854;2024-02-26T01:26:55;100321.23;;;6.14;67.99
55044;BME280;54902;50.420;18.854;2024-02-26T01:27:26;100315.80;;;6.14;67.99
55044;BME280;54902;50.420;18.854;2024-02-26T01:27:58;100318.51;;;6.14;68.01
55044;BME280;54902;50.420;18.854;2024-02-26T01:28:29;100316.65;;;6.14;68.01
55044;BME280;54902;50.420;18.854;2024-02-26T01:29:00;100313.21;;;6.12;68.01
55044;BME280;54902;50.420;18.854;2024-02-26T01:29:31;100315.80;;;6.14;68.01
55044;BME280;54902;50.420;18.854;2024-02-26T01:30:06;100315.92;;;6.12;68.02
55044;BME280;54902;50.420;18.854;2024-02-26T01:30:37;100317.74;;;6.12;68.02
55044;BME280;54902;50.420;18.854;2024-02-26T01:31:09;100312.31;;;6.12;68.04
55044;BME280;54902;50.420;18.854;2024-02-26T01:31:40;100314.19;;;6.11;68.03
55044;BME280;54902;50.420;18.854;2024-02-26T01:32:11;100316.89;;;6.11;68.04
55044;BME280;54902;50.420;18.854;2024-02-26T01:32:42;100315.16;;;6.10;68.05
55044;BME280;54902;50.420;18.854;2024-02-26T01:33:13;100313.33;;;6.11;68.05
55044;BME280;54902;50.420;18.854;2024-02-26T01:33:44;100315.16;;;6.10;68.05
55044;BME280;54902;50.420;18.854;2024-02-26T01:34:15;100310.70;;;6.09;68.05
55044;BME280;54902;50.420;18.854;2024-02-26T01:34:48;100309.84;;;6.09;68.06
55044;BME280;54902;50.420;18.854;2024-02-26T01:35:19;100312.55;;;6.09;68.05
55044;BME280;54902;50.420;18.854;2024-02-26T01:35:50;100318.83;;;6.09;68.05
55044;BME280;54902;50.420;18.854;2024-02-26T01:36:21;100310.81;;;6.08;68.06
55044;BME280;54902;50.420;18.854;2024-02-26T01:36:52;100316.23;;;6.08;68.06
55044;BME280;54902;50.420;18.854;2024-02-26T01:37:23;100315.38;;;6.07;68.09
55044;BME280;54902;50.420;18.854;2024-02-26T01:37:55;100311.78;;;6.07;68.07
55044;BME280;54902;50.420;18.854;2024-02-26T01:38:26;100316.47;;;6.05;68.09
55044;BME280;54902;50.420;18.854;2024-02-26T01:38:58;100313.63;;;6.06;68.08
55044;BME280;54902;50.420;18.854;2024-02-26T01:39:29;100317.32;;;6.05;68.09
55044;BME280;54902;50.420;18.854;2024-02-26T01:40:00;100311.05;;;6.05;68.09
55044;BME280;54902;50.420;18.854;2024-02-26T01:40:34;100313.76;;;6.05;68.09
55044;BME280;54902;50.420;18.854;2024-02-26T01:41:06;100312.02;;;6.04;68.11
55044;BME280;54902;50.420;18.854;2024-02-26T01:41:38;100312.02;;;6.04;68.11
55044;BME280;54902;50.420;18.854;2024-02-26T01:42:09;100310.27;;;6.03;68.14
55044;BME280;54902;50.420;18.854;2024-02-26T01:42:40;100320.16;;;6.04;68.14
55044;BME280;54902;50.420;18.854;2024-02-26T01:43:12;100311.28;;;6.02;68.13
55044;BME280;54902;50.420;18.854;2024-02-26T01:43:43;100314.84;;;6.02;68.13
55044;BME280;54902;50.420;18.854;2024-02-26T01:44:14;100315.70;;;6.03;68.14
55044;BME280;54902;50.420;18.854;2024-02-26T01:44:45;100309.54;;;6.01;68.15
55044;BME280;54902;50.420;18.854;2024-02-26T01:45:16;100312.25;;;6.01;68.15
55044;BME280;54902;50.420;18.854;2024-02-26T01:45:55;100314.96;;;6.01;68.16
55044;BME280;54902;50.420;18.854;2024-02-26T01:46:26;100310.39;;;6.01;68.17
55044;BME280;54902;50.420;18.854;2024-02-26T01:46:57;100305.98;;;6.00;68.18
55044;BME280;54902;50.420;18.854;2024-02-26T01:47:28;100316.81;;;6.00;68.20
55044;BME280;54902;50.420;18.854;2024-02-26T01:48:00;100309.65;;;5.99;68.19
55044;BME280;54902;50.420;18.854;2024-02-26T01:48:31;100307.91;;;5.98;68.20
55044;BME280;54902;50.420;18.854;2024-02-26T01:49:02;100304.35;;;5.98;68.20
55044;BME280;54902;50.420;18.854;2024-02-26T01:49:34;100312.36;;;5.99;68.21
55044;BME280;54902;50.420;18.854;2024-02-26T01:50:06;100307.06;;;5.98;68.22
55044;BME280;54902;50.420;18.854;2024-02-26T01:50:40;100307.91;;;5.98;68.23
55044;BME280;54902;50.420;18.854;2024-02-26T01:51:12;100303.47;;;5.97;68.24
55044;BME280;54902;50.420;18.854;2024-02-26T01:51:44;100308.89;;;5.97;68.24
55044;BME280;54902;50.420;18.854;2024-02-26T01:52:16;100308.03;;;5.97;68.25
55044;BME280;54902;50.420;18.854;2024-02-26T01:52:50;100308.03;;;5.97;68.25
55044;BME280;54902;50.420;18.854;2024-02-26T01:53:21;100309.01;;;5.96;68.26
55044;BME280;54902;50.420;18.854;2024-02-26T01:53:53;100311.72;;;5.96;68.27
55044;BME280;54902;50.420;18.854;2024-02-26T01:54:24;100304.55;;;5.95;68.27
55044;BME280;54902;50.420;18.854;2024-02-26T01:54:56;100309.12;;;5.94;68.26
55044;BME280;54902;50.420;18.854;2024-02-26T01:55:27;100307.38;;;5.93;68.28
55044;BME280;54902;50.420;18.854;2024-02-26T01:55:58;100314.54;;;5.94;68.28
55044;BME280;54902;50.420;18.854;2024-02-26T01:56:30;100311.95;;;5.93;68.28
55044;BME280;54902;50.420;18.854;2024-02-26T01:57:04;100311.95;;;5.93;68.29
55044;BME280;54902;50.420;18.854;2024-02-26T01:57:35;100303.92;;;5.91;68.29
55044;BME280;54902;50.420;18.854;2024-02-26T01:58:07;100314.66;;;5.93;68.29
55044;BME280;54902;50.420;18.854;2024-02-26T01:58:38;100310.20;;;5.92;68.30
55044;BME280;54902;50.420;18.854;2024-02-26T01:59:09;100310.20;;;5.92;68.29
55044;BME280;54902;50.420;18.854;2024-02-26T01:59:41;100310.20;;;5.92;68.29
55044;BME280;54902;50.420;18.854;2024-02-26T02:00:14;100314.88;;;5.90;68.30
55044;BME280;54902;50.420;18.854;2024-02-26T02:00:47;100313.15;;;5.89;68.31
55044;BME280;54902;50.420;18.854;2024-02-26T02:01:21;100313.15;;;5.89;68.30
55044;BME280;54902;50.420;18.854;2024-02-26T02:01:55;100310.43;;;5.89;68.30
55044;BME280;54902;50.420;18.854;2024-02-26T02:02:28;100313.26;;;5.87;68.31
55044;BME280;54902;50.420;18.854;2024-02-26T02:02:59;100304.25;;;5.87;68.32
55044;BME280;54902;50.420;18.854;2024-02-26T02:03:31;100312.38;;;5.87;68.32
55044;BME280;54902;50.420;18.854;2024-02-26T02:04:02;100317.79;;;5.87;68.33
55044;BME280;54902;50.420;18.854;2024-02-26T02:04:34;100307.96;;;5.86;68.33
55044;BME280;54902;50.420;18.854;2024-02-26T02:05:06;100304.36;;;5.85;68.31
55044;BME280;54902;50.420;18.854;2024-02-26T02:05:37;100308.92;;;5.85;68.33
55044;BME280;54902;50.420;18.854;2024-02-26T02:06:12;100304.48;;;5.84;68.34
55044;BME280;54902;50.420;18.854;2024-02-26T02:06:45;100307.19;;;5.84;68.35
55044;BME280;54902;50.420;18.854;2024-02-26T02:07:18;100307.19;;;5.84;68.35
55044;BME280;54902;50.420;18.854;2024-02-26T02:07:49;100305.44;;;5.83;68.37
55044;BME280;54902;50.420;18.854;2024-02-26T02:08:23;100311.83;;;5.82;68.36
55044;BME280;54902;50.420;18.854;2024-02-26T02:08:55;100312.71;;;5.82;68.38
55044;BME280;54902;50.420;18.854;2024-02-26T02:09:27;100302.84;;;5.81;68.38
55044;BME280;54902;50.420;18.854;2024-02-26T02:09:58;100307.41;;;5.81;68.40
55044;BME280;54902;50.420;18.854;2024-02-26T02:10:29;100311.09;;;5.80;68.39
55044;BME280;54902;50.420;18.854;2024-02-26T02:11:00;100313.80;;;5.80;68.41
55044;BME280;54902;50.420;18.854;2024-02-26T02:11:33;100316.51;;;5.80;68.41
55044;BME280;54902;50.420;18.854;2024-02-26T02:12:05;100311.95;;;5.80;68.42
55044;BME280;54902;50.420;18.854;2024-02-26T02:12:37;100316.51;;;5.80;68.43
55044;BME280;54902;50.420;18.854;2024-02-26T02:13:10;100313.80;;;5.80;68.44
55044;BME280;54902;50.420;18.854;2024-02-26T02:13:41;100309.34;;;5.79;68.43
55044;BME280;54902;50.420;18.854;2024-02-26T02:14:12;100315.74;;;5.78;68.44
55044;BME280;54902;50.420;18.854;2024-02-26T02:14:43;100312.05;;;5.79;68.44
55044;BME280;54902;50.420;18.854;2024-02-26T02:15:14;100313.03;;;5.78;68.47
55044;BME280;54902;50.420;18.854;2024-02-26T02:15:45;100318.45;;;5.78;68.45
55044;BME280;54902;50.420;18.854;2024-02-26T02:16:16;100313.03;;;5.78;68.53
55044;BME280;54902;50.420;18.854;2024-02-26T02:16:47;100316.62;;;5.78;68.46
55044;BME280;54902;50.420;18.854;2024-02-26T02:17:19;100308.62;;;5.77;68.47
55044;BME280;54902;50.420;18.854;2024-02-26T02:17:50;100311.33;;;5.77;68.47
55044;BME280;54902;50.420;18.854;2024-02-26T02:18:21;100308.73;;;5.76;68.47
55044;BME280;54902;50.420;18.854;2024-02-26T02:18:52;100314.03;;;5.77;68.49
55044;BME280;54902;50.420;18.854;2024-02-26T02:19:24;100314.14;;;5.76;68.47
55044;BME280;54902;50.420;18.854;2024-02-26T02:19:55;100306.02;;;5.76;68.47
55044;BME280;54902;50.420;18.854;2024-02-26T02:20:32;100307.84;;;5.75;68.46
55044;BME280;54902;50.420;18.854;2024-02-26T02:21:06;100299.71;;;5.75;68.47
55044;BME280;54902;50.420;18.854;2024-02-26T02:21:37;100306.07;;;5.74;68.48
55044;BME280;54902;50.420;18.854;2024-02-26T02:22:08;100306.07;;;5.74;68.50
55044;BME280;54902;50.420;18.854;2024-02-26T02:22:39;100302.50;;;5.74;68.50
55044;BME280;54902;50.420;18.854;2024-02-26T02:23:10;100298.94;;;5.73;68.49
55044;BME280;54902;50.420;18.854;2024-02-26T02:23:42;100309.78;;;5.73;68.50
55044;BME280;54902;50.420;18.854;2024-02-26T02:24:19;100308.04;;;5.72;68.49
55044;BME280;54902;50.420;18.854;2024-02-26T02:24:52;100309.01;;;5.71;68.51
55044;BME280;54902;50.420;18.854;2024-02-26T02:25:23;100306.29;;;5.71;68.54
55044;BME280;54902;50.420;18.854;2024-02-26T02:25:54;100310.86;;;5.71;68.53
55044;BME280;54902;50.420;18.854;2024-02-26T02:26:26;100304.55;;;5.70;68.55
55044;BME280;54902;50.420;18.854;2024-02-26T02:26:57;100302.84;;;5.69;68.54
55044;BME280;54902;50.420;18.854;2024-02-26T02:27:29;100316.39;;;5.69;68.50
55044;BME280;54902;50.420;18.854;2024-02-26T02:28:00;100309.23;;;5.68;68.55
55044;BME280;54902;50.420;18.854;2024-02-26T02:28:32;100292.66;;;5.60;68.53
55044;BME280;54902;50.420;18.854;2024-02-26T02:29:03;100303.93;;;5.67;68.54
55044;BME280;54902;50.420;18.854;2024-02-26T02:29:34;100304.78;;;5.67;68.54
55044;BME280;54902;50.420;18.854;2024-02-26T02:30:06;100308.46;;;5.66;68.54
55044;BME280;54902;50.420;18.854;2024-02-26T02:30:39;100310.31;;;5.66;68.54
55044;BME280;54902;50.420;18.854;2024-02-26T02:31:11;100309.46;;;5.65;68.54
55044;BME280;54902;50.420;18.854;2024-02-26T02:31:42;100309.54;;;5.64;68.54
55044;BME280;54902;50.420;18.854;2024-02-26T02:32:14;100309.54;;;5.64;68.55
55044;BME280;54902;50.420;18.854;2024-02-26T02:32:46;100305.98;;;5.63;68.58
55044;BME280;54902;50.420;18.854;2024-02-26T02:33:17;100305.23;;;5.61;68.55
55044;BME280;54902;50.420;18.854;2024-02-26T02:33:48;100307.95;;;5.61;68.55
55044;BME280;54902;50.420;18.854;2024-02-26T02:34:21;100310.73;;;5.60;68.55
55044;BME280;54902;50.420;18.854;2024-02-26T02:34:52;100313.44;;;5.60;68.56
55044;BME280;54902;50.420;18.854;2024-02-26T02:35:23;100307.17;;;5.59;68.57
55044;BME280;54902;50.420;18.854;2024-02-26T02:35:54;100312.70;;;5.58;68.57
55044;BME280;54902;50.420;18.854;2024-02-26T02:36:25;100309.10;;;5.57;68.60
55044;BME280;54902;50.420;18.854;2024-02-26T02:36:56;100313.79;;;5.55;68.58
55044;BME280;54902;50.420;18.854;2024-02-26T02:37:27;100312.93;;;5.55;68.59
55044;BME280;54902;50.420;18.854;2024-02-26T02:37:58;100313.02;;;5.53;68.59
55044;BME280;54902;50.420;18.854;2024-02-26T02:38:29;100316.72;;;5.52;68.58
55044;BME280;54902;50.420;18.854;2024-02-26T02:39:04;100314.98;;;5.51;68.59
55044;BME280;54902;50.420;18.854;2024-02-26T02:39:35;100315.95;;;5.50;68.60
55044;BME280;54902;50.420;18.854;2024-02-26T02:40:07;100308.79;;;5.49;68.57
55044;BME280;54902;50.420;18.854;2024-02-26T02:40:38;100311.50;;;5.49;68.59
55044;BME280;54902;50.420;18.854;2024-02-26T02:41:09;100308.05;;;5.47;68.58
55044;BME280;54902;50.420;18.854;2024-02-26T02:41:40;100309.02;;;5.46;68.59
55044;BME280;54902;50.420;18.854;2024-02-26T02:42:12;100307.28;;;5.45;68.59
55044;BME280;54902;50.420;18.854;2024-02-26T02:42:43;100306.54;;;5.43;68.58
55044;BME280;54902;50.420;18.854;2024-02-26T02:43:14;100308.36;;;5.43;68.59
55044;BME280;54902;50.420;18.854;2024-02-26T02:43:45;100304.80;;;5.42;68.58
55044;BME280;54902;50.420;18.854;2024-02-26T02:44:16;100305.77;;;5.41;68.58
55044;BME280;54902;50.420;18.854;2024-02-26T02:44:48;100305.02;;;5.39;68.58